Estación Meteorológica Peña el Pijo (Robertgarden) [ 06/24/18 10:34:04 CEST ]

Fecha Hora Presion(HPa) Temp (°C) Humedad % Rocio (°C) Viento ( m/s) Direccion Lluvia 1Hora(mm) Lluvia 24H(mm) LLuvia Total(mm)
2018-Feb-09 01:01:56 1006.400 -4.1 72 -8.4         76.66
2018-Feb-09 02:01:45 1006.300 -4.6 73 -8.7         76.66
2018-Feb-09 03:01:43 1006.300 -5.1 74 -9.0         76.66
2018-Feb-09 04:01:46 1005.500 -5.4 75 -9.1         76.66
2018-Feb-09 05:01:43 1005.600 -5.6 76 -9.2         76.66
2018-Feb-09 06:01:41 1005.600 -5.8 77 -9.2         76.66
2018-Feb-09 07:01:54 1005.500 -6.1 78 -9.3         76.66
2018-Feb-09 08:01:51 1006.100 -5.9 78 -9.1         76.66
2018-Feb-09 09:01:39 1006.300 -5.2 79 -8.3         76.66
2018-Feb-09 10:01:52 1006.400 0.8 76 -3.0         76.66
2018-Feb-09 11:01:40 1006.300 3.8 61 -3.1         76.66
2018-Feb-09 12:01:48 1006.400 5.4 52 -3.7         76.66
2018-Feb-09 13:02:00 1006.300 5.6 50 -4.0         76.66
2018-Feb-09 14:01:45 1006.400 5.4 47 -5.1         76.66
2018-Feb-09 15:01:43 1005.400 6.9 43 -4.9         76.66
2018-Feb-09 16:01:56 1005.000 7.6 40 -5.2 1.2 WNW     76.66
2018-Feb-09 17:02:03 1004.900 7.2 43 -4.6 1.8 N     76.66
2018-Feb-09 18:01:48 1005.900 4.8 49 -5.1 3.2 NNW     76.66
2018-Feb-09 19:01:34 1006.900 3.9 53 -4.9         76.66
2018-Feb-09 20:01:48 1007.600 3.4 57 -4.4         76.66
2018-Feb-09 21:01:49 1007.600 3.2 60 -3.8         76.66
2018-Feb-09 22:01:45 1008.100 2.4 64 -3.7         76.66
2018-Feb-09 23:01:42 1008.100 2.8 65 -3.1         76.66

Temperatura Máxima:    Temperatura Mínima:-6°
Presión Máxima:1008.100 Hpa    Presión Mínima:1004.900 Hpa


Volver